Terminal Aerodrome Forecast
Issued by NWS Goodland, KS

Home | Current Version | Previous Version | Text Only | Print | Product List | Glossary On
Versions: 1 2 3 4 5 6 7 8 9 10 11 12 13 14 15 16 17 18 19 20 21
000
FTUS43 KGLD 222320
TAFGLD
TAF
KGLD 222320Z 2300/2324 15012G20KT P6SM VCTS BKN070CB
     FM230300 17007KT P6SM SCT080
     FM230500 25007KT P6SM BKN250
     FM231400 29005KT P6SM SCT250
     FM231800 35006KT P6SM SCT250
     FM232000 03006KT P6SM SCT250=

USA.gov is the U.S. government's official web portal to all federal, state and local government web resources and services.